.
WxDataArchive / Data Records for 2016-03-08
2016-03-07 March 2016 2016-03-09

Data Records for Tuesday, 08 March 2016

Time	Temp	Chill	HIndex	Humid	Dewpt	 Wind 	HiWind	WindDir	Rain 	Barom
-----	----	-----	------	-----	-----	------	------	-------	-----	-----
00:00	55.3	55.3	55.3	53	38.5	0	0	---	0.00	29.961 
00:05	55.3	55.3	55.3	53	38.5	0	1	112	0.00	29.961 
00:10	55.3	55.3	55.3	53	38.5	0	1	112	0.00	29.961 
00:15	55.3	55.3	55.3	53	38.5	0	2	112	0.00	29.962 
00:20	55.3	55.3	55.3	53	38.5	0	1	112	0.00	29.962 
00:25	55.1	55.1	55.1	53	38.3	0	1	112	0.00	29.962 
00:30	55.1	55.1	55.1	53	38.3	0	1	112	0.00	29.964 
00:35	55.1	55.1	55.1	53	38.3	0	1	112	0.00	29.964 
00:40	55.0	55.0	55.0	53	38.2	0	1	112	0.00	29.964 
00:45	54.8	54.8	54.8	53	38.0	0	1	112	0.00	29.961 
00:50	54.7	54.7	54.7	53	37.9	0	1	112	0.00	29.961 
00:55	54.5	54.5	54.5	54	38.2	0	1	112	0.00	29.961 
01:00	54.2	54.2	54.2	54	37.9	0	0	---	0.00	29.965 
01:05	53.9	53.9	53.9	54	37.6	0	0	---	0.00	29.965 
01:10	53.6	53.6	53.6	55	37.8	0	1	112	0.00	29.965 
01:15	53.5	53.5	53.5	55	37.7	0	2	112	0.00	29.966 
01:20	53.3	53.3	53.3	55	37.5	0	0	---	0.00	29.966 
01:25	53.1	53.1	53.1	56	37.8	0	0	---	0.00	29.966 
01:30	52.8	52.8	52.8	56	37.5	0	0	---	0.00	29.966 
01:35	52.2	52.2	52.2	58	37.9	0	0	---	0.00	29.966 
01:40	51.6	51.6	51.6	59	37.7	0	0	---	0.00	29.966 
01:45	51.1	51.1	51.1	60	37.7	0	0	---	0.00	29.968 
01:50	50.7	50.7	50.7	61	37.7	0	0	---	0.00	29.968 
01:55	50.1	50.1	50.1	62	37.6	0	0	---	0.00	29.968 
02:00	49.5	49.5	49.5	63	37.4	0	0	---	0.00	29.968 
02:05	49.2	49.2	49.2	64	37.5	0	0	---	0.00	29.968 
02:10	49.1	49.1	49.1	65	37.8	0	0	---	0.00	29.968 
02:15	48.9	48.9	48.9	65	37.7	0	0	---	0.00	29.961 
02:20	48.9	48.9	48.9	65	37.7	0	0	---	0.00	29.961 
02:25	48.8	48.8	48.8	66	38.0	0	0	---	0.00	29.961 
02:30	48.8	48.8	48.8	66	38.0	0	0	---	0.00	29.955 
02:35	48.6	48.6	48.6	67	38.1	0	0	---	0.00	29.955 
02:40	48.5	48.5	48.5	68	38.4	0	0	---	0.00	29.955 
02:45	48.3	48.3	48.3	68	38.2	0	0	---	0.00	29.952 
02:50	48.0	48.0	48.0	68	37.9	0	0	---	0.00	29.952 
02:55	47.7	47.7	47.7	69	38.0	0	0	---	0.00	29.952 
03:00	47.4	47.4	47.4	69	37.7	0	0	---	0.00	29.955 
03:05	47.1	47.1	47.1	70	37.8	0	0	---	0.00	29.955 
03:10	46.8	46.8	46.8	71	37.9	0	0	---	0.00	29.955 
03:15	46.5	46.5	46.5	72	38.0	0	0	---	0.00	29.957 
03:20	46.1	46.1	46.1	73	37.9	0	0	---	0.00	29.957 
03:25	45.8	45.8	45.8	73	37.6	0	0	---	0.00	29.957 
03:30	45.5	45.5	45.5	73	37.4	0	0	---	0.00	29.958 
03:35	45.2	45.2	45.2	74	37.4	0	0	---	0.00	29.958 
03:40	44.9	44.9	44.9	75	37.5	0	0	---	0.00	29.958 
03:45	44.8	44.8	44.8	75	37.4	0	0	---	0.00	29.960 
03:50	44.6	44.6	44.6	76	37.5	0	0	---	0.00	29.960 
03:55	44.3	44.3	44.3	76	37.2	0	0	---	0.00	29.960 
04:00	44.2	44.2	44.2	76	37.1	0	0	---	0.00	29.966 
04:05	44.2	44.2	44.2	77	37.5	0	0	---	0.00	29.966 
04:10	44.3	44.3	44.3	77	37.6	0	0	---	0.00	29.966 
04:15	44.5	44.5	44.5	77	37.7	0	0	---	0.00	29.968 
04:20	44.8	44.8	44.8	77	38.0	0	0	---	0.00	29.968 
04:25	45.4	45.4	45.4	76	38.3	0	0	---	0.00	29.968 
04:30	46.1	46.1	46.1	74	38.3	0	0	---	0.00	29.961 
04:35	46.5	46.5	46.5	73	38.3	0	0	---	0.00	29.961 
04:40	47.0	47.0	47.0	73	38.8	0	0	---	0.00	29.961 
04:45	47.4	47.4	47.4	72	38.8	0	0	---	0.00	29.964 
04:50	47.7	47.7	47.7	71	38.8	0	0	---	0.00	29.964 
04:55	47.9	47.9	47.9	70	38.6	0	0	---	0.00	29.964 
05:00	48.2	48.2	48.2	70	38.9	0	0	---	0.00	29.967 
05:05	48.3	48.3	48.3	69	38.6	0	0	---	0.00	29.967 
05:10	48.3	48.3	48.3	69	38.6	0	0	---	0.00	29.967 
05:15	48.6	48.6	48.6	69	38.9	0	0	---	0.00	29.969 
05:20	48.8	48.8	48.8	69	39.1	0	0	---	0.00	29.969 
05:25	49.2	49.2	49.2	68	39.1	0	0	---	0.00	29.969 
05:30	49.5	49.5	49.5	67	39.0	0	0	---	0.00	29.969 
05:35	49.8	49.8	49.8	66	38.9	0	1	112	0.00	29.969 
05:40	50.2	50.2	50.2	65	38.9	0	1	112	0.00	29.969 
05:45	50.7	50.7	50.7	65	39.4	0	1	112	0.00	29.969 
05:50	51.0	51.0	51.0	64	39.3	0	1	112	0.00	29.969 
05:55	51.4	51.4	51.4	63	39.2	0	2	112	0.00	29.969 
06:00	51.7	51.7	51.7	62	39.1	0	2	112	0.00	29.979 
06:05	51.9	51.9	51.9	62	39.3	0	2	112	0.00	29.979 
06:10	52.2	52.2	52.2	61	39.2	0	2	112	0.00	29.979 
06:15	52.3	52.3	52.3	61	39.3	0	2	112	0.00	29.985 
06:20	52.5	52.5	52.5	61	39.4	0	2	112	0.00	29.985 
06:25	52.6	52.6	52.6	60	39.1	0	2	112	0.00	29.985 
06:30	52.6	52.6	52.6	60	39.1	0	1	112	0.00	29.991 
06:35	52.8	52.8	52.8	60	39.3	0	1	112	0.00	29.991 
06:40	52.8	52.8	52.8	60	39.3	0	1	112	0.00	29.991 
06:45	52.8	52.8	52.8	60	39.3	0	0	---	0.00	29.997 
06:50	52.8	52.8	52.8	60	39.3	0	1	112	0.00	29.997 
06:55	52.6	52.6	52.6	61	39.5	0	0	---	0.00	29.997 
07:00	52.6	52.6	52.6	61	39.5	0	0	---	0.00	30.000 
07:05	52.5	52.5	52.5	61	39.4	0	1	112	0.00	30.000 
07:10	52.3	52.3	52.3	62	39.7	0	0	---	0.00	30.000 
07:15	52.3	52.3	52.3	62	39.7	0	1	112	0.00	30.002 
07:20	52.3	52.3	52.3	62	39.7	0	1	112	0.00	30.002 
07:25	52.3	52.3	52.3	62	39.7	0	1	112	0.00	30.002 
07:30	52.3	52.3	52.3	62	39.7	0	0	---	0.00	30.010 
07:35	52.3	52.3	52.3	62	39.7	0	1	112	0.00	30.010 
07:40	52.5	52.5	52.5	62	39.9	0	1	112	0.00	30.010 
07:45	52.6	52.6	52.6	61	39.5	0	1	112	0.00	30.014 
07:50	52.8	52.8	52.8	60	39.3	0	1	112	0.00	30.014 
07:55	53.1	53.1	53.1	60	39.6	0	1	112	0.00	30.014 
08:00	53.2	53.2	53.2	60	39.7	0	2	112	0.00	30.015 
08:05	53.2	53.2	53.2	59	39.2	0	1	112	0.00	30.015 
08:10	53.3	53.3	53.3	59	39.3	0	1	112	0.00	30.015 
08:15	53.5	53.5	53.5	59	39.5	0	1	112	0.00	30.015 
08:20	53.6	53.6	53.6	59	39.6	0	1	112	0.00	30.015 
08:25	53.8	53.8	53.8	59	39.8	0	1	112	0.00	30.015 
08:30	53.9	53.9	53.9	59	39.9	0	1	112	0.00	30.015 
08:35	54.1	54.1	54.1	58	39.7	0	2	112	0.00	30.015 
08:40	54.4	54.4	54.4	58	39.9	0	2	112	0.00	30.015 
08:45	54.5	54.5	54.5	58	40.0	0	2	112	0.00	30.015 
08:50	54.7	54.7	54.7	58	40.2	0	2	112	0.00	30.015 
08:55	54.8	54.8	54.8	57	39.9	0	2	112	0.00	30.015 
09:00	55.1	55.1	55.1	58	40.6	0	3	112	0.00	30.016 
09:05	55.1	55.1	55.1	58	40.6	0	3	112	0.00	30.016 
09:10	55.1	55.1	55.1	58	40.6	0	3	112	0.00	30.016 
09:15	55.3	55.3	55.3	58	40.8	0	2	112	0.00	30.014 
09:20	55.6	55.6	55.6	57	40.6	0	2	112	0.00	30.014 
09:25	55.7	55.7	55.7	57	40.7	0	1	112	0.00	30.014 
09:30	56.0	56.0	56.0	56	40.5	1	5	248	0.00	30.014 
09:35	56.3	56.3	56.3	56	40.8	0	2	248	0.00	30.014 
09:40	56.6	56.6	56.6	56	41.1	0	3	248	0.00	30.014 
09:45	56.9	56.9	56.9	55	40.9	0	2	90	0.00	30.011 
09:50	57.2	57.2	57.2	56	41.6	0	3	90	0.00	30.011 
09:55	57.6	57.6	57.6	55	41.6	1	4	90	0.00	30.011 
10:00	58.3	58.3	58.3	55	42.2	0	2	90	0.00	30.011 
10:05	59.2	59.2	59.2	54	42.6	1	5	90	0.00	30.011 
10:10	60.2	60.2	60.2	52	42.5	1	7	90	0.00	30.011 
10:15	61.2	61.2	61.2	52	43.4	1	3	270	0.00	30.007 
10:20	62.0	62.0	62.0	50	43.1	1	4	270	0.00	30.007 
10:25	62.1	62.1	62.1	50	43.2	2	5	248	0.00	30.007 
10:30	62.0	62.0	62.0	50	43.1	1	5	248	0.00	30.009 
10:35	62.1	62.1	62.1	50	43.2	2	4	248	0.00	30.009 
10:40	62.3	62.3	62.3	50	43.4	1	4	270	0.00	30.009 
10:45	62.4	62.4	62.4	50	43.5	2	5	270	0.00	30.009 
10:50	62.6	62.6	62.6	50	43.7	2	4	248	0.00	30.009 
10:55	62.9	62.9	62.9	49	43.4	1	4	248	0.00	30.009 
11:00	63.2	63.2	63.2	49	43.7	1	5	225	0.00	30.007 
11:05	63.9	63.9	63.9	51	45.4	1	4	248	0.00	30.007 
11:10	64.2	64.2	64.2	49	44.6	2	6	248	0.00	30.007 
11:15	64.7	64.7	64.7	49	45.1	2	6	248	0.00	30.004 
11:20	64.8	64.8	64.8	48	44.6	2	6	248	0.00	30.004 
11:25	65.0	65.0	65.0	48	44.8	2	6	248	0.00	30.004 
11:30	65.3	65.3	65.3	49	45.6	2	6	248	0.00	29.996 
11:35	65.5	65.5	65.5	50	46.4	2	6	248	0.00	29.996 
11:40	65.6	65.6	65.6	49	45.9	1	5	270	0.00	29.996 
11:45	66.3	66.3	66.3	50	47.1	1	4	248	0.00	29.989 
11:50	66.6	66.6	66.6	49	46.8	1	5	248	0.00	29.989 
11:55	67.3	67.3	67.3	50	48.0	1	4	248	0.00	29.989 
12:00	67.9	67.9	67.9	48	47.5	1	6	248	0.00	29.981 
12:05	68.1	68.1	68.1	48	47.7	2	5	248	0.00	29.981 
12:10	67.8	67.8	67.8	49	47.9	2	7	248	0.00	29.981 
12:15	67.9	67.9	67.9	49	48.0	2	4	248	0.00	29.977 
12:20	68.3	68.3	68.3	49	48.4	2	4	248	0.00	29.977 
12:25	68.1	68.1	68.1	48	47.7	2	5	248	0.00	29.977 
12:30	67.8	67.8	67.8	49	47.9	1	4	248	0.00	29.970 
12:35	67.6	67.6	67.6	50	48.3	1	4	248	0.00	29.970 
12:40	67.6	67.6	67.6	50	48.3	1	5	90	0.00	29.970 
12:45	67.6	67.6	67.6	50	48.3	1	6	248	0.00	29.955 
12:50	67.8	67.8	67.8	51	49.0	1	5	248	0.00	29.955 
12:55	68.1	68.1	68.1	50	48.7	2	5	248	0.00	29.955 
13:00	68.8	68.8	68.8	51	49.9	1	5	248	0.00	29.943 
13:05	69.8	69.8	69.8	51	50.8	1	3	248	0.00	29.943 
13:10	70.4	70.4	70.4	48	49.8	2	5	270	0.00	29.943 
13:15	70.4	70.4	70.4	46	48.6	2	6	248	0.00	29.940 
13:20	70.4	70.4	70.4	50	50.9	2	6	45	0.00	29.940 
13:25	70.4	70.4	70.4	49	50.3	2	7	248	0.00	29.940 
13:30	70.6	70.6	70.6	47	49.4	2	9	248	0.00	29.938 
13:35	70.4	70.4	70.4	48	49.8	2	4	248	0.00	29.938 
13:40	70.4	70.4	70.4	48	49.8	2	10	248	0.00	29.938 
13:45	70.4	70.4	70.4	48	49.8	3	10	248	0.00	29.940 
13:50	70.6	70.6	70.6	49	50.5	2	6	270	0.00	29.940 
13:55	70.8	70.8	70.8	48	50.1	2	4	248	0.00	29.940 
14:00	71.1	71.1	71.1	48	50.4	1	6	248	0.00	29.944 
14:05	71.1	71.1	71.1	49	51.0	2	7	248	0.00	29.944 
14:10	71.1	71.1	71.1	48	50.4	2	6	248	0.00	29.944 
14:15	70.8	70.8	70.8	47	49.6	3	11	248	0.00	29.943 
14:20	70.3	70.3	70.3	50	50.8	2	11	248	0.00	29.943 
14:25	69.9	69.9	69.9	49	49.9	2	5	248	0.00	29.943 
14:30	69.9	69.9	69.9	49	49.9	2	5	248	0.00	29.944 
14:35	69.8	69.8	69.8	48	49.2	2	6	248	0.00	29.944 
14:40	69.8	69.8	69.8	48	49.2	2	6	248	0.00	29.944 
14:45	69.9	69.9	69.9	47	48.7	2	4	225	0.00	29.944 
14:50	69.9	69.9	69.9	49	49.9	1	4	68	0.00	29.944 
14:55	69.6	69.6	69.6	48	49.0	2	6	248	0.00	29.944 
15:00	69.3	69.3	69.3	48	48.8	2	7	248	0.00	29.941 
15:05	69.1	69.1	69.1	50	49.7	1	3	45	0.00	29.941 
15:10	69.6	69.6	69.6	51	50.7	2	9	248	0.00	29.941 
15:15	70.1	70.1	70.1	50	50.6	1	3	270	0.00	29.938 
15:20	70.8	70.8	70.8	48	50.1	1	5	292	0.00	29.938 
15:25	70.8	70.8	70.8	47	49.6	2	6	270	0.00	29.938 
15:30	70.4	70.4	70.4	49	50.3	0	2	270	0.00	29.929 
15:35	70.1	70.1	70.1	48	49.5	2	6	270	0.00	29.929 
15:40	69.9	69.9	69.9	50	50.4	2	5	248	0.00	29.929 
15:45	70.1	70.1	70.1	50	50.6	2	7	90	0.00	29.924 
15:50	70.4	70.4	70.4	49	50.3	1	5	248	0.00	29.924 
15:55	70.8	70.8	70.8	48	50.1	1	7	248	0.00	29.924 
16:00	70.6	70.6	70.6	48	49.9	1	4	270	0.00	29.915 
16:05	70.3	70.3	70.3	49	50.2	2	6	0	0.00	29.915 
16:10	69.8	69.8	69.8	50	50.3	1	5	68	0.00	29.915 
16:15	69.4	69.4	69.4	51	50.5	1	5	90	0.00	29.911 
16:20	69.6	69.6	69.6	50	50.1	1	5	248	0.00	29.911 
16:25	69.8	69.8	69.8	49	49.8	2	4	270	0.00	29.911 
16:30	69.9	69.9	69.9	49	49.9	1	5	248	0.00	29.910 
16:35	69.9	69.9	69.9	50	50.4	1	3	248	0.00	29.910 
16:40	69.9	69.9	69.9	50	50.4	1	3	248	0.00	29.910 
16:45	69.4	69.4	69.4	50	49.9	1	6	45	0.00	29.906 
16:50	69.3	69.3	69.3	51	50.4	1	5	45	0.00	29.906 
16:55	69.3	69.3	69.3	51	50.4	0	2	135	0.00	29.906 
17:00	69.1	69.1	69.1	50	49.7	0	3	338	0.00	29.909 
17:05	69.1	69.1	69.1	50	49.7	1	2	248	0.00	29.909 
17:10	69.1	69.1	69.1	51	50.2	1	5	22	0.00	29.909 
17:15	68.9	68.9	68.9	52	50.5	1	5	112	0.00	29.905 
17:20	68.6	68.6	68.6	53	50.8	1	4	90	0.00	29.905 
17:25	68.4	68.4	68.4	53	50.6	1	4	68	0.00	29.905 
17:30	68.3	68.3	68.3	54	51.0	0	3	68	0.00	29.905 
17:35	68.1	68.1	68.1	54	50.8	0	2	68	0.00	29.905 
17:40	68.1	68.1	68.1	54	50.8	0	1	68	0.00	29.905 
17:45	68.1	68.1	68.1	54	50.8	0	1	68	0.00	29.901 
17:50	68.3	68.3	68.3	53	50.5	0	1	68	0.00	29.901 
17:55	68.4	68.4	68.4	53	50.6	0	1	68	0.00	29.901 
18:00	68.6	68.6	68.6	51	49.7	1	6	68	0.00	29.905 
18:05	68.9	68.9	68.9	50	49.5	1	5	270	0.00	29.905 
18:10	68.9	68.9	68.9	50	49.5	0	3	248	0.00	29.905 
18:15	68.8	68.8	68.8	50	49.4	1	3	248	0.00	29.896 
18:20	68.4	68.4	68.4	50	49.0	0	2	248	0.00	29.896 
18:25	68.1	68.1	68.1	51	49.3	1	3	315	0.00	29.896 
18:30	67.9	67.9	67.9	51	49.1	1	10	135	0.00	29.896 
18:35	67.8	67.8	67.8	51	49.0	0	2	202	0.00	29.896 
18:40	67.3	67.3	67.3	52	49.1	0	2	202	0.00	29.896 
18:45	66.9	66.9	66.9	52	48.7	0	2	202	0.00	29.895 
18:50	66.6	66.6	66.6	53	48.9	0	3	202	0.00	29.895 
18:55	66.3	66.3	66.3	54	49.1	0	0	---	0.00	29.895 
19:00	65.8	65.8	65.8	54	48.7	0	0	---	0.00	29.898 
19:05	65.3	65.3	65.3	55	48.7	0	0	---	0.00	29.898 
19:10	65.0	65.0	65.0	57	49.4	0	0	---	0.00	29.898 
19:15	64.7	64.7	64.7	58	49.6	0	0	---	0.00	29.896 
19:20	64.3	64.3	64.3	58	49.2	0	1	202	0.00	29.896 
19:25	64.2	64.2	64.2	59	49.6	0	0	---	0.00	29.896 
19:30	64.2	64.2	64.2	59	49.6	0	0	---	0.00	29.896 
19:35	63.9	63.9	63.9	59	49.3	0	1	202	0.00	29.896 
19:40	63.5	63.5	63.5	60	49.4	0	1	202	0.00	29.896 
19:45	63.2	63.2	63.2	61	49.5	0	1	202	0.00	29.883 
19:50	63.1	63.1	63.1	62	49.9	0	1	202	0.00	29.883 
19:55	62.9	62.9	62.9	62	49.7	0	2	180	0.00	29.883 
20:00	62.7	62.7	62.7	63	49.9	0	1	180	0.00	29.877 
20:05	62.7	62.7	62.7	63	49.9	0	1	158	0.00	29.877 
20:10	62.4	62.4	62.4	64	50.1	0	1	158	0.00	29.877 
20:15	62.1	62.1	62.1	64	49.8	0	1	158	0.00	29.886 
20:20	61.6	61.6	61.6	65	49.7	0	1	158	0.00	29.886 
20:25	61.3	61.3	61.3	66	49.8	0	1	158	0.00	29.886 
20:30	61.2	61.2	61.2	66	49.7	0	2	158	0.00	29.897 
20:35	61.2	61.2	61.2	65	49.3	0	1	158	0.00	29.897 
20:40	61.2	61.2	61.2	65	49.3	0	1	158	0.00	29.897 
20:45	61.2	61.2	61.2	65	49.3	0	2	158	0.00	29.900 
20:50	60.9	60.9	60.9	66	49.5	0	1	158	0.00	29.900 
20:55	60.7	60.7	60.7	66	49.3	0	1	158	0.00	29.900 
21:00	60.4	60.4	60.4	67	49.4	0	1	158	0.00	29.908 
21:05	60.1	60.1	60.1	67	49.1	0	1	158	0.00	29.908 
21:10	59.9	59.9	59.9	68	49.3	0	1	158	0.00	29.908 
21:15	59.8	59.8	59.8	68	49.2	0	0	---	0.00	29.908 
21:20	59.6	59.6	59.6	69	49.4	0	1	158	0.00	29.908 
21:25	59.5	59.5	59.5	69	49.3	0	1	158	0.00	29.908 
21:30	59.3	59.3	59.3	70	49.5	0	1	158	0.00	29.918 
21:35	59.2	59.2	59.2	70	49.4	0	1	158	0.00	29.918 
21:40	59.2	59.2	59.2	70	49.4	0	1	158	0.00	29.918 
21:45	59.2	59.2	59.2	70	49.4	0	3	135	0.00	29.912 
21:50	59.0	59.0	59.0	70	49.2	0	2	135	0.00	29.912 
21:55	59.2	59.2	59.2	70	49.4	1	2	135	0.00	29.912 
22:00	59.3	59.3	59.3	70	49.5	0	2	135	0.00	29.921 
22:05	59.3	59.3	59.3	69	49.1	0	2	135	0.00	29.921 
22:10	59.3	59.3	59.3	69	49.1	0	1	135	0.00	29.921 
22:15	59.5	59.5	59.5	69	49.3	0	2	135	0.00	29.924 
22:20	59.5	59.5	59.5	69	49.3	0	2	135	0.00	29.924 
22:25	59.6	59.6	59.6	69	49.4	0	3	135	0.00	29.924 
22:30	59.8	59.8	59.8	68	49.2	0	4	135	0.00	29.925 
22:35	59.9	59.9	59.9	68	49.3	0	1	0	0.00	29.925 
22:40	59.9	59.9	59.9	68	49.3	0	2	0	0.00	29.925 
22:45	59.9	59.9	59.9	68	49.3	0	2	0	0.00	29.925 
22:50	59.8	59.8	59.8	68	49.2	0	1	0	0.00	29.925 
22:55	59.8	59.8	59.8	68	49.2	0	1	0	0.00	29.925 
23:00	59.6	59.6	59.6	68	49.0	0	3	45	0.00	29.925 
23:05	59.6	59.6	59.6	68	49.0	0	2	45	0.00	29.925 
23:10	59.8	59.8	59.8	67	48.8	1	3	45	0.00	29.925 
23:15	59.9	59.9	59.9	67	48.9	0	2	270	0.00	29.924 
23:20	59.8	59.8	59.8	67	48.8	0	3	270	0.00	29.924 
23:25	59.8	59.8	59.8	67	48.8	0	3	292	0.00	29.924 
23:30	59.8	59.8	59.8	67	48.8	0	2	292	0.00	29.928 
23:35	59.8	59.8	59.8	66	48.4	0	4	248	0.00	29.928 
23:40	59.8	59.8	59.8	66	48.4	0	3	248	0.00	29.928 
23:45	59.6	59.6	59.6	66	48.2	0	1	248	0.00	29.922 
23:50	59.6	59.6	59.6	66	48.2	0	3	248	0.00	29.922 
23:55	59.5	59.5	59.5	66	48.1	0	3	248	0.00	29.922 

CoCoRaHS
IN-AL-39
A2 Web Hosting
Creative Commons License
GoDaddy
search engine by freefind advanced

loaded 2018-11-16 01:26:57 • last modified 2010-11-18 10:43:29
Privacy PolicyDisclaimer
• wx.awcolley.com is powered by PmWiki v.2002016 •
• all content (unless otherwise noted) © 2018 A W Colley